Record high temperature 16.4°C Record low temperature 2.6°C Record high gust 16 mph Record high average 7.0 mph Record daily rain 0.0 mm Record low windchill 2.6°C Record high barometer 1029.9 hPa Record low barometer 1023.1 hPa
Daily high pressure 1029.1 mb Daily low pressure 1028.2 mb Daily low windchill 2.6°C Daily high heat index 5.6°C Daily high gust speed 2.3 mph SE Daily high average speed 0.5 mph SE
Forecast: partly cloudy with little temp. change.
Weather Data
LAST READING AT TIME: 05:00 DATE: 16 April 2014, time of next update: 05:15
Current WeatherNight time/Dry Current Temperature 2.7°C (36.9°F), Apparent temp 1.5°C
Maximum Temperature (since midnight)5.6°C at: 00:00 Minimum Temperature (since midnight)2.6°C at: 04:43
Average windspeed (ten minute)0.0 mph Wind Direction (ten minute)SE (135°)
Windchill Temperature 2.7°C Maximum Gust (last hour) 0 mph at: 05:00
Maximum Gust (since midnight) 2 mph at: 01:11 Maximum 1 minute average (since midnight)0.5 mph at: 01:47
Rainfall (last hour)0.0 mm Rainfall (since midnight)0.0 mm (0.00 in.)---
Rainfall This month 5.4 mm (0.21 in.) Rainfall To date this year 222.4 mm (8.76 in.)
Maximum rain per minute (last hour)0.0 mm/min Maximum rain per hour (last 6 hours)0.0 mm/hour
Yesterdays rainfall 0.0 mm DewPoint 1.7°C (Wet Bulb :2.3°C )
Humidity 93 %, Humidex 1.0°C Barometer corrected to msl1028.3 mb
Pressure change -0.3 mb (last hour) Trend (last hour)STEADY
Pressure change (last 12 hours)-0.6 mb Pressure change (last 6 hours)-0.6 mb
Current Indoor Temp. 18.3°C
Current Indoor Hum. 49%
Current solar 0 W/Mē Current UV0.0
Maximum solar (since midnight) 0 W/Mē Maximum UV (since midnight)0.0
Current 00:00 hours of sunshine today, current sky: Night time/Dry
Sunshine hours for the year: 12:32 hrs Sunshine hours for the month: 12:32 hrs
Current evapotranspiration rate 0.2 mm per day. Yesterday's reading 2.5

This page is updated from recent data collected by a DAVIS VANTAGE PRO weather station Use the Reload or Refresh facility on your browser to retrieve the latest data.


Animated web cam image


Weather report/Warning/Metars

London City Airport, United Kingdom (EGLC) 51-30N 000-30W
Apr 15, 2014 - 11:20 PM EDT / 2014.04.16 0320 UTC
Wind: from the N (360 degrees) at 3 MPH (3 KT):0
Visibility: greater than 7 mile(s):0
Temperature: 41 F (5 C)
Dew Point: 37 F (3 C)
Relative Humidity: 86%
Pressure (altimeter): 30.39 in. Hg (1029 hPa)
ob: EGLC 160320Z AUTO 36003KT 9999 NCD 05/03 Q1029
cycle: 3
Biggin Hill , United Kingdom (EGKB) 51-19N 000-02E
Apr 15, 2014 - 03:20 PM EDT / 2014.04.15 1920 UTC
Wind: from the E (090 degrees) at 6 MPH (5 KT):0
Visibility: greater than 7 mile(s):0
Temperature: 44 F (7 C)
Dew Point: 33 F (1 C)
Relative Humidity: 65%
Pressure (altimeter): 30.39 in. Hg (1029 hPa)
ob: EGKB 151920Z 09005KT CAVOK 07/01 Q1029 
cycle: 19
London / Heathrow Airport, United Kingdom (EGLL) 51-29N 000-27W 0M
Apr 15, 2014 - 11:20 PM EDT / 2014.04.16 0320 UTC
Wind: from the E (080 degrees) at 3 MPH (3 KT):0
Visibility: greater than 7 mile(s):0
Temperature: 39 F (4 C)
Dew Point: 33 F (1 C)
Relative Humidity: 80%
Pressure (altimeter): 30.39 in. Hg (1029 hPa)
ob: EGLL 160320Z 08003KT CAVOK 04/01 Q1029
cycle: 3
London / Gatwick Airport, United Kingdom (EGKK) 51-09N 000-11W 0M
Apr 15, 2014 - 11:20 PM EDT / 2014.04.16 0320 UTC
Wind: from the E (080 degrees) at 5 MPH (4 KT):0
Visibility: 5 mile(s):0
Sky conditions: partly cloudy
Temperature: 33 F (1 C)
Windchill: 28 F (-2 C):1
Dew Point: 32 F (0 C)
Relative Humidity: 93%
Pressure (altimeter): 30.39 in. Hg (1029 hPa)
ob: EGKK 160320Z 08004KT 9000 SCT020 01/00 Q1029
cycle: 3
Middle Wallop, United Kingdom (EGVP) 51-09N 001-34W 0M
Apr 15, 2014 - 10:50 PM EDT / 2014.04.16 0250 UTC
Wind: from the E (090 degrees) at 8 MPH (7 KT):0
Visibility: greater than 7 mile(s):0
Temperature: 37 F (3 C)
Dew Point: 33 F (1 C)
Relative Humidity: 86%
Pressure (altimeter): 30.36 in. Hg (1028 hPa)
ob: EGVP 160250Z AUTO 09007KT 9999 // NCD 03/01 Q1028
cycle: 3



Use the RELOAD facility on your browser to retrieve the latest data.

Click here for a daily update of the averages/extremes to date for the month
Created by "Weather Display" software version 10.37R Build 81 at this start time/date 19:17 15/04/14